sensor_id;sensor_type;location;lat;lon;timestamp;pressure;altitude;pressure_sealevel;temperature;humidity
61136;BME280;47021;51.340;12.432;2022-10-26T00:00:18;100377.78;;;13.64;68.19
61136;BME280;47021;51.340;12.432;2022-10-26T00:02:50;100380.56;;;13.72;68.25
61136;BME280;47021;51.340;12.432;2022-10-26T00:05:18;100382.94;;;13.66;67.91
61136;BME280;47021;51.340;12.432;2022-10-26T00:10:59;100386.09;;;13.60;67.84
61136;BME280;47021;51.340;12.432;2022-10-26T00:13:43;100387.75;;;13.70;67.85
61136;BME280;47021;51.340;12.432;2022-10-26T00:16:17;100384.44;;;13.68;67.05
61136;BME280;47021;51.340;12.432;2022-10-26T00:18:52;100391.06;;;13.53;67.35
61136;BME280;47021;51.340;12.432;2022-10-26T00:21:41;100386.81;;;13.52;67.35
61136;BME280;47021;51.340;12.432;2022-10-26T00:24:13;100390.81;;;13.37;68.11
61136;BME280;47021;51.340;12.432;2022-10-26T00:26:53;100379.75;;;13.43;68.40
61136;BME280;47021;51.340;12.432;2022-10-26T00:29:18;100375.19;;;13.55;67.61
61136;BME280;47021;51.340;12.432;2022-10-26T00:31:43;100390.81;;;13.56;67.05
61136;BME280;47021;51.340;12.432;2022-10-26T00:34:14;100379.47;;;13.36;67.46
61136;BME280;47021;51.340;12.432;2022-10-26T00:36:40;100394.94;;;13.30;67.99
61136;BME280;47021;51.340;12.432;2022-10-26T00:39:21;100378.38;;;13.29;67.87
61136;BME280;47021;51.340;12.432;2022-10-26T00:41:53;100399.78;;;13.34;67.67
61136;BME280;47021;51.340;12.432;2022-10-26T00:44:58;100389.41;;;13.14;68.08
61136;BME280;47021;51.340;12.432;2022-10-26T00:47:39;100394.13;;;13.20;68.19
61136;BME280;47021;51.340;12.432;2022-10-26T00:50:36;100399.22;;;13.31;67.92
61136;BME280;47021;51.340;12.432;2022-10-26T00:55:50;100395.91;;;13.48;67.83
61136;BME280;47021;51.340;12.432;2022-10-26T00:58:28;100395.38;;;13.44;67.57
61136;BME280;47021;51.340;12.432;2022-10-26T01:01:08;100385.56;;;13.37;68.08
61136;BME280;47021;51.340;12.432;2022-10-26T01:03:52;100386.50;;;13.45;67.74
61136;BME280;47021;51.340;12.432;2022-10-26T01:06:19;100389.69;;;13.49;67.88
61136;BME280;47021;51.340;12.432;2022-10-26T01:09:11;100391.22;;;13.61;67.67
61136;BME280;47021;51.340;12.432;2022-10-26T01:11:37;100386.09;;;13.60;67.82
61136;BME280;47021;51.340;12.432;2022-10-26T01:14:09;100383.72;;;13.66;67.34
61136;BME280;47021;51.340;12.432;2022-10-26T01:19:59;100383.50;;;13.40;68.24
61136;BME280;47021;51.340;12.432;2022-10-26T01:28:00;100387.19;;;13.57;67.80
61136;BME280;47021;51.340;12.432;2022-10-26T01:46:24;100381.03;;;13.20;67.97
61136;BME280;47021;51.340;12.432;2022-10-26T01:48:54;100380.03;;;13.21;67.49
61136;BME280;47021;51.340;12.432;2022-10-26T01:51:27;100378.88;;;13.04;68.17
61136;BME280;47021;51.340;12.432;2022-10-26T01:54:06;100365.06;;;12.93;68.51
61136;BME280;47021;51.340;12.432;2022-10-26T01:56:40;100364.66;;;12.97;68.15
61136;BME280;47021;51.340;12.432;2022-10-26T02:02:24;100364.72;;;13.26;67.49
61136;BME280;47021;51.340;12.432;2022-10-26T02:05:00;100359.72;;;13.04;68.46
61136;BME280;47021;51.340;12.432;2022-10-26T02:18:30;100360.72;;;13.22;68.31
61136;BME280;47021;51.340;12.432;2022-10-26T02:21:20;100358.22;;;13.30;68.26
61136;BME280;47021;51.340;12.432;2022-10-26T02:23:49;100363.16;;;13.04;68.14
61136;BME280;47021;51.340;12.432;2022-10-26T02:26:17;100364.78;;;12.67;69.81
61136;BME280;47021;51.340;12.432;2022-10-26T02:28:48;100364.56;;;12.49;70.63
61136;BME280;47021;51.340;12.432;2022-10-26T02:31:15;100360.47;;;12.56;70.47
61136;BME280;47021;51.340;12.432;2022-10-26T02:33:45;100356.53;;;12.91;69.56
61136;BME280;47021;51.340;12.432;2022-10-26T02:36:15;100359.47;;;13.07;68.77
61136;BME280;47021;51.340;12.432;2022-10-26T02:38:44;100357.69;;;13.07;69.02
61136;BME280;47021;51.340;12.432;2022-10-26T02:41:14;100354.47;;;12.85;69.03
61136;BME280;47021;51.340;12.432;2022-10-26T02:43:53;100359.78;;;12.64;69.25
61136;BME280;47021;51.340;12.432;2022-10-26T02:46:26;100354.00;;;12.60;70.20
61136;BME280;47021;51.340;12.432;2022-10-26T02:48:52;100361.22;;;12.87;68.92
61136;BME280;47021;51.340;12.432;2022-10-26T02:56:36;100359.13;;;12.71;69.44
61136;BME280;47021;51.340;12.432;2022-10-26T02:59:06;100356.38;;;12.73;69.59
61136;BME280;47021;51.340;12.432;2022-10-26T03:01:34;100360.38;;;12.77;69.44
61136;BME280;47021;51.340;12.432;2022-10-26T03:03:59;100348.81;;;12.89;68.78
61136;BME280;47021;51.340;12.432;2022-10-26T03:06:25;100360.53;;;12.85;69.11
61136;BME280;47021;51.340;12.432;2022-10-26T03:08:57;100361.97;;;12.59;69.86
61136;BME280;47021;51.340;12.432;2022-10-26T03:11:23;100351.66;;;12.57;70.11
61136;BME280;47021;51.340;12.432;2022-10-26T03:14:01;100360.53;;;12.36;71.30
61136;BME280;47021;51.340;12.432;2022-10-26T03:16:26;100356.44;;;12.43;70.44
61136;BME280;47021;51.340;12.432;2022-10-26T03:18:51;100357.03;;;12.65;69.81
61136;BME280;47021;51.340;12.432;2022-10-26T03:21:17;100353.19;;;12.69;69.46
61136;BME280;47021;51.340;12.432;2022-10-26T03:23:42;100347.69;;;12.82;68.56
61136;BME280;47021;51.340;12.432;2022-10-26T03:26:09;100351.28;;;12.71;68.66
61136;BME280;47021;51.340;12.432;2022-10-26T03:28:37;100340.78;;;12.62;69.30
61136;BME280;47021;51.340;12.432;2022-10-26T03:31:09;100345.75;;;12.65;69.16
61136;BME280;47021;51.340;12.432;2022-10-26T03:33:35;100334.88;;;12.69;69.26
61136;BME280;47021;51.340;12.432;2022-10-26T03:36:07;100333.56;;;12.54;69.28
61136;BME280;47021;51.340;12.432;2022-10-26T03:38:33;100336.34;;;12.53;69.65
61136;BME280;47021;51.340;12.432;2022-10-26T03:43:42;100327.53;;;12.73;68.88
61136;BME280;47021;51.340;12.432;2022-10-26T03:46:15;100334.28;;;12.66;68.97
61136;BME280;47021;51.340;12.432;2022-10-26T03:48:46;100328.75;;;12.59;68.69
61136;BME280;47021;51.340;12.432;2022-10-26T03:51:18;100323.38;;;12.61;68.75
61136;BME280;47021;51.340;12.432;2022-10-26T03:56:34;100321.16;;;12.37;70.12
61136;BME280;47021;51.340;12.432;2022-10-26T03:59:05;100324.34;;;12.50;69.07
61136;BME280;47021;51.340;12.432;2022-10-26T04:01:44;100317.97;;;12.43;69.46
61136;BME280;47021;51.340;12.432;2022-10-26T04:04:09;100313.50;;;12.25;70.28
61136;BME280;47021;51.340;12.432;2022-10-26T04:09:26;100318.09;;;12.32;70.46
61136;BME280;47021;51.340;12.432;2022-10-26T04:12:04;100313.97;;;12.39;69.67
61136;BME280;47021;51.340;12.432;2022-10-26T04:17:21;100326.44;;;12.66;68.61
61136;BME280;47021;51.340;12.432;2022-10-26T04:19:52;100325.06;;;12.62;68.72
61136;BME280;47021;51.340;12.432;2022-10-26T04:25:19;100321.31;;;12.15;69.72
61136;BME280;47021;51.340;12.432;2022-10-26T04:27:53;100330.41;;;12.11;69.71
61136;BME280;47021;51.340;12.432;2022-10-26T04:30:20;100326.59;;;12.25;68.98
61136;BME280;47021;51.340;12.432;2022-10-26T04:32:47;100321.50;;;12.23;69.56
61136;BME280;47021;51.340;12.432;2022-10-26T04:35:30;100320.88;;;12.10;70.16
61136;BME280;47021;51.340;12.432;2022-10-26T04:37:58;100317.72;;;12.07;69.94
61136;BME280;47021;51.340;12.432;2022-10-26T04:40:32;100321.88;;;12.09;70.36
61136;BME280;47021;51.340;12.432;2022-10-26T04:42:57;100322.97;;;12.07;70.23
61136;BME280;47021;51.340;12.432;2022-10-26T04:45:30;100331.94;;;12.14;70.27
61136;BME280;47021;51.340;12.432;2022-10-26T04:48:13;100320.94;;;12.20;69.50
61136;BME280;47021;51.340;12.432;2022-10-26T04:50:39;100329.63;;;12.20;70.04
61136;BME280;47021;51.340;12.432;2022-10-26T04:53:06;100325.63;;;12.16;70.17
61136;BME280;47021;51.340;12.432;2022-10-26T04:55:34;100326.91;;;12.31;69.48
61136;BME280;47021;51.340;12.432;2022-10-26T04:58:06;100328.13;;;12.27;69.45
61136;BME280;47021;51.340;12.432;2022-10-26T05:00:31;100328.31;;;12.45;68.85
61136;BME280;47021;51.340;12.432;2022-10-26T05:03:05;100323.44;;;12.21;69.24
61136;BME280;47021;51.340;12.432;2022-10-26T05:05:42;100319.22;;;12.39;69.19
61136;BME280;47021;51.340;12.432;2022-10-26T05:08:09;100322.38;;;12.43;69.50
61136;BME280;47021;51.340;12.432;2022-10-26T05:10:35;100311.06;;;12.33;69.54
61136;BME280;47021;51.340;12.432;2022-10-26T05:13:01;100313.16;;;12.48;68.89
61136;BME280;47021;51.340;12.432;2022-10-26T05:15:27;100314.81;;;12.49;69.34
61136;BME280;47021;51.340;12.432;2022-10-26T05:18:11;100312.09;;;12.60;68.56
61136;BME280;47021;51.340;12.432;2022-10-26T05:20:37;100317.34;;;12.60;68.94
61136;BME280;47021;51.340;12.432;2022-10-26T05:23:03;100316.22;;;12.63;68.67
61136;BME280;47021;51.340;12.432;2022-10-26T05:25:32;100319.13;;;12.60;68.45
61136;BME280;47021;51.340;12.432;2022-10-26T05:27:59;100314.84;;;12.68;68.64
61136;BME280;47021;51.340;12.432;2022-10-26T05:30:24;100313.34;;;12.66;68.37
61136;BME280;47021;51.340;12.432;2022-10-26T05:32:56;100314.59;;;12.71;68.34
61136;BME280;47021;51.340;12.432;2022-10-26T05:35:21;100314.56;;;12.62;68.83
61136;BME280;47021;51.340;12.432;2022-10-26T05:37:46;100314.72;;;12.80;68.75
61136;BME280;47021;51.340;12.432;2022-10-26T05:40:12;100315.25;;;12.64;68.97
61136;BME280;47021;51.340;12.432;2022-10-26T05:42:46;100310.56;;;12.58;69.12
61136;BME280;47021;51.340;12.432;2022-10-26T05:45:11;100314.56;;;12.52;69.91
61136;BME280;47021;51.340;12.432;2022-10-26T05:47:38;100322.28;;;12.63;69.22
61136;BME280;47021;51.340;12.432;2022-10-26T05:50:05;100328.50;;;12.62;69.39
61136;BME280;47021;51.340;12.432;2022-10-26T05:52:37;100323.97;;;12.74;69.28
61136;BME280;47021;51.340;12.432;2022-10-26T05:55:02;100323.53;;;12.88;68.88
61136;BME280;47021;51.340;12.432;2022-10-26T05:57:27;100328.69;;;12.90;68.65
61136;BME280;47021;51.340;12.432;2022-10-26T05:59:52;100328.69;;;13.09;68.94
61136;BME280;47021;51.340;12.432;2022-10-26T06:02:23;100335.06;;;13.06;68.88
61136;BME280;47021;51.340;12.432;2022-10-26T06:04:50;100336.97;;;13.14;68.84
61136;BME280;47021;51.340;12.432;2022-10-26T06:07:17;100339.19;;;13.18;68.53
61136;BME280;47021;51.340;12.432;2022-10-26T06:09:43;100338.50;;;13.16;68.80
61136;BME280;47021;51.340;12.432;2022-10-26T06:12:26;100330.22;;;13.30;68.75
61136;BME280;47021;51.340;12.432;2022-10-26T06:14:51;100335.47;;;13.30;69.07
61136;BME280;47021;51.340;12.432;2022-10-26T06:20:17;100341.38;;;13.52;67.99
61136;BME280;47021;51.340;12.432;2022-10-26T06:30:28;100350.72;;;13.73;67.58
61136;BME280;47021;51.340;12.432;2022-10-26T06:32:53;100350.78;;;13.35;69.19
61136;BME280;47021;51.340;12.432;2022-10-26T06:37:54;100351.00;;;13.70;68.12
61136;BME280;47021;51.340;12.432;2022-10-26T06:40:22;100341.22;;;13.43;69.04
61136;BME280;47021;51.340;12.432;2022-10-26T06:45:16;100353.00;;;13.95;67.93
61136;BME280;47021;51.340;12.432;2022-10-26T06:47:52;100354.38;;;13.99;67.53
61136;BME280;47021;51.340;12.432;2022-10-26T06:50:37;100356.75;;;13.93;67.62
61136;BME280;47021;51.340;12.432;2022-10-26T06:55:58;100356.34;;;13.88;68.21
61136;BME280;47021;51.340;12.432;2022-10-26T06:58:27;100350.84;;;13.81;68.61
61136;BME280;47021;51.340;12.432;2022-10-26T07:00:59;100350.84;;;13.72;68.75
61136;BME280;47021;51.340;12.432;2022-10-26T07:03:31;100350.16;;;13.79;68.62
61136;BME280;47021;51.340;12.432;2022-10-26T07:05:57;100344.56;;;14.01;67.61
61136;BME280;47021;51.340;12.432;2022-10-26T07:08:22;100343.47;;;13.94;67.97
61136;BME280;47021;51.340;12.432;2022-10-26T07:10:47;100341.66;;;14.04;67.76
61136;BME280;47021;51.340;12.432;2022-10-26T07:13:15;100343.84;;;14.09;67.32
61136;BME280;47021;51.340;12.432;2022-10-26T07:15:46;100342.88;;;14.00;67.93
61136;BME280;47021;51.340;12.432;2022-10-26T07:18:16;100352.22;;;14.32;67.30
61136;BME280;47021;51.340;12.432;2022-10-26T07:20:49;100351.78;;;14.27;67.20
61136;BME280;47021;51.340;12.432;2022-10-26T07:23:15;100354.41;;;14.36;67.46
61136;BME280;47021;51.340;12.432;2022-10-26T07:25:41;100355.03;;;14.48;66.61
61136;BME280;47021;51.340;12.432;2022-10-26T07:28:15;100354.16;;;14.57;66.43
61136;BME280;47021;51.340;12.432;2022-10-26T07:30:45;100358.34;;;14.50;67.00
61136;BME280;47021;51.340;12.432;2022-10-26T07:33:25;100361.38;;;14.72;66.50
61136;BME280;47021;51.340;12.432;2022-10-26T07:35:51;100355.84;;;14.75;66.56
61136;BME280;47021;51.340;12.432;2022-10-26T07:38:16;100358.94;;;14.89;66.36
61136;BME280;47021;51.340;12.432;2022-10-26T07:40:54;100355.47;;;14.88;66.02
61136;BME280;47021;51.340;12.432;2022-10-26T07:43:27;100353.81;;;15.22;65.57
61136;BME280;47021;51.340;12.432;2022-10-26T07:45:58;100356.97;;;15.43;65.13
61136;BME280;47021;51.340;12.432;2022-10-26T07:48:25;100347.81;;;15.73;64.72
61136;BME280;47021;51.340;12.432;2022-10-26T07:50:59;100352.22;;;15.90;64.09
61136;BME280;47021;51.340;12.432;2022-10-26T07:53:39;100347.53;;;15.76;64.44
61136;BME280;47021;51.340;12.432;2022-10-26T07:56:04;100338.97;;;15.74;64.89
61136;BME280;47021;51.340;12.432;2022-10-26T07:58:39;100348.44;;;15.67;65.25
61136;BME280;47021;51.340;12.432;2022-10-26T08:01:11;100347.16;;;15.97;64.95
61136;BME280;47021;51.340;12.432;2022-10-26T08:03:37;100349.13;;;15.95;64.58
61136;BME280;47021;51.340;12.432;2022-10-26T08:06:04;100337.31;;;16.07;64.65
61136;BME280;47021;51.340;12.432;2022-10-26T08:08:37;100342.72;;;16.39;64.09
61136;BME280;47021;51.340;12.432;2022-10-26T08:11:03;100342.56;;;16.74;63.17
61136;BME280;47021;51.340;12.432;2022-10-26T08:13:41;100343.59;;;16.98;62.32
61136;BME280;47021;51.340;12.432;2022-10-26T08:16:21;100345.09;;;17.24;61.84
61136;BME280;47021;51.340;12.432;2022-10-26T08:18:58;100338.81;;;17.17;61.35
61136;BME280;47021;51.340;12.432;2022-10-26T08:21:24;100341.78;;;17.22;61.79
61136;BME280;47021;51.340;12.432;2022-10-26T08:26:40;100342.28;;;17.18;61.82
61136;BME280;47021;51.340;12.432;2022-10-26T08:29:06;100346.25;;;17.30;61.74
61136;BME280;47021;51.340;12.432;2022-10-26T08:31:34;100356.44;;;17.01;62.36
61136;BME280;47021;51.340;12.432;2022-10-26T08:34:00;100361.53;;;16.94;62.52
61136;BME280;47021;51.340;12.432;2022-10-26T08:36:40;100352.50;;;17.13;61.92
61136;BME280;47021;51.340;12.432;2022-10-26T08:39:08;100351.34;;;17.31;61.33
61136;BME280;47021;51.340;12.432;2022-10-26T08:44:25;100355.47;;;17.18;61.40
61136;BME280;47021;51.340;12.432;2022-10-26T08:49:39;100348.88;;;17.14;61.69
61136;BME280;47021;51.340;12.432;2022-10-26T08:52:10;100350.38;;;17.48;60.96
61136;BME280;47021;51.340;12.432;2022-10-26T08:54:48;100342.28;;;17.34;61.07
61136;BME280;47021;51.340;12.432;2022-10-26T08:57:33;100354.00;;;17.47;60.72
61136;BME280;47021;51.340;12.432;2022-10-26T09:00:04;100349.25;;;17.51;60.68
61136;BME280;47021;51.340;12.432;2022-10-26T09:02:30;100348.75;;;17.63;60.52
61136;BME280;47021;51.340;12.432;2022-10-26T09:04:56;100345.44;;;17.45;61.11
61136;BME280;47021;51.340;12.432;2022-10-26T09:07:41;100347.06;;;17.46;60.74
61136;BME280;47021;51.340;12.432;2022-10-26T09:12:57;100348.88;;;17.86;60.36
61136;BME280;47021;51.340;12.432;2022-10-26T09:18:24;100352.66;;;18.47;59.33
61136;BME280;47021;51.340;12.432;2022-10-26T09:24:01;100348.94;;;18.64;57.68
61136;BME280;47021;51.340;12.432;2022-10-26T09:26:32;100345.63;;;18.92;57.76
61136;BME280;47021;51.340;12.432;2022-10-26T09:29:04;100353.69;;;19.22;57.30
61136;BME280;47021;51.340;12.432;2022-10-26T09:31:37;100352.72;;;19.60;56.35
61136;BME280;47021;51.340;12.432;2022-10-26T09:34:04;100357.63;;;19.86;55.51
61136;BME280;47021;51.340;12.432;2022-10-26T09:36:32;100347.19;;;19.69;55.86
61136;BME280;47021;51.340;12.432;2022-10-26T09:39:29;100357.81;;;19.84;55.81
61136;BME280;47021;51.340;12.432;2022-10-26T09:47:55;100355.19;;;20.13;55.39
61136;BME280;47021;51.340;12.432;2022-10-26T09:53:07;100360.41;;;20.36;55.65
61136;BME280;47021;51.340;12.432;2022-10-26T09:55:33;100356.63;;;20.60;54.85
61136;BME280;47021;51.340;12.432;2022-10-26T09:58:19;100356.94;;;20.35;54.94
61136;BME280;47021;51.340;12.432;2022-10-26T10:00:47;100360.22;;;20.52;54.92
61136;BME280;47021;51.340;12.432;2022-10-26T10:03:27;100360.66;;;20.56;54.79
61136;BME280;47021;51.340;12.432;2022-10-26T10:06:16;100366.06;;;20.83;54.88
61136;BME280;47021;51.340;12.432;2022-10-26T10:14:15;100368.19;;;20.88;54.70
61136;BME280;47021;51.340;12.432;2022-10-26T10:16:52;100361.94;;;20.95;54.42
61136;BME280;47021;51.340;12.432;2022-10-26T10:19:27;100360.13;;;20.81;54.31
61136;BME280;47021;51.340;12.432;2022-10-26T10:21:55;100368.25;;;21.30;53.17
61136;BME280;47021;51.340;12.432;2022-10-26T10:24:31;100369.75;;;21.39;53.16
61136;BME280;47021;51.340;12.432;2022-10-26T10:29:42;100367.91;;;21.61;52.58
61136;BME280;47021;51.340;12.432;2022-10-26T10:32:18;100372.94;;;20.92;54.48
61136;BME280;47021;51.340;12.432;2022-10-26T10:34:44;100365.88;;;21.21;54.12
61136;BME280;47021;51.340;12.432;2022-10-26T10:39:59;100369.47;;;22.04;52.19
61136;BME280;47021;51.340;12.432;2022-10-26T10:42:31;100362.78;;;22.15;51.99
61136;BME280;47021;51.340;12.432;2022-10-26T10:44:57;100370.69;;;22.42;52.08
61136;BME280;47021;51.340;12.432;2022-10-26T10:47:27;100369.69;;;21.82;53.53
61136;BME280;47021;51.340;12.432;2022-10-26T10:50:11;100378.25;;;22.39;51.36
61136;BME280;47021;51.340;12.432;2022-10-26T10:52:41;100376.34;;;22.67;51.01
61136;BME280;47021;51.340;12.432;2022-10-26T10:55:09;100370.63;;;22.29;51.71
61136;BME280;47021;51.340;12.432;2022-10-26T10:58:00;100373.75;;;22.39;50.84
61136;BME280;47021;51.340;12.432;2022-10-26T11:00:35;100377.19;;;22.33;51.14
61136;BME280;47021;51.340;12.432;2022-10-26T11:03:10;100377.56;;;22.65;51.10
61136;BME280;47021;51.340;12.432;2022-10-26T11:06:10;100382.41;;;22.48;51.44
61136;BME280;47021;51.340;12.432;2022-10-26T11:08:55;100384.44;;;22.12;52.03
61136;BME280;47021;51.340;12.432;2022-10-26T11:11:38;100379.44;;;22.30;52.52
61136;BME280;47021;51.340;12.432;2022-10-26T11:14:16;100381.91;;;22.72;50.82
61136;BME280;47021;51.340;12.432;2022-10-26T11:16:46;100384.25;;;22.13;52.36
61136;BME280;47021;51.340;12.432;2022-10-26T11:19:28;100373.03;;;22.59;51.71
61136;BME280;47021;51.340;12.432;2022-10-26T11:21:57;100380.94;;;22.39;51.63
61136;BME280;47021;51.340;12.432;2022-10-26T11:27:49;100370.66;;;22.36;51.53
61136;BME280;47021;51.340;12.432;2022-10-26T11:30:22;100374.84;;;22.58;51.11
61136;BME280;47021;51.340;12.432;2022-10-26T11:35:51;100376.34;;;22.61;50.93
61136;BME280;47021;51.340;12.432;2022-10-26T11:38:29;100368.63;;;22.38;50.86
61136;BME280;47021;51.340;12.432;2022-10-26T11:43:50;100370.75;;;22.56;50.38
61136;BME280;47021;51.340;12.432;2022-10-26T11:46:23;100363.91;;;22.40;50.73
61136;BME280;47021;51.340;12.432;2022-10-26T11:54:06;100369.25;;;22.40;50.49
61136;BME280;47021;51.340;12.432;2022-10-26T11:56:40;100365.59;;;22.47;50.28
61136;BME280;47021;51.340;12.432;2022-10-26T11:59:21;100377.16;;;22.61;50.44
61136;BME280;47021;51.340;12.432;2022-10-26T12:01:55;100369.41;;;22.73;49.74
61136;BME280;47021;51.340;12.432;2022-10-26T12:04:24;100374.75;;;22.73;49.31
61136;BME280;47021;51.340;12.432;2022-10-26T12:07:00;100377.16;;;22.61;50.11
61136;BME280;47021;51.340;12.432;2022-10-26T12:09:31;100367.66;;;23.06;49.10
61136;BME280;47021;51.340;12.432;2022-10-26T12:14:58;100374.44;;;23.15;49.52
61136;BME280;47021;51.340;12.432;2022-10-26T12:17:35;100381.03;;;23.32;49.77
61136;BME280;47021;51.340;12.432;2022-10-26T12:23:10;100383.47;;;23.21;50.16
61136;BME280;47021;51.340;12.432;2022-10-26T12:25:36;100378.63;;;23.57;48.71
61136;BME280;47021;51.340;12.432;2022-10-26T12:28:02;100367.13;;;23.50;49.23
61136;BME280;47021;51.340;12.432;2022-10-26T12:30:45;100377.03;;;22.76;50.50
61136;BME280;47021;51.340;12.432;2022-10-26T12:36:00;100381.31;;;22.77;50.96
61136;BME280;47021;51.340;12.432;2022-10-26T12:48:54;100379.72;;;22.89;49.97
61136;BME280;47021;51.340;12.432;2022-10-26T13:10:05;100350.72;;;23.53;48.19
61136;BME280;47021;51.340;12.432;2022-10-26T13:12:55;100347.44;;;23.70;48.14
61136;BME280;47021;51.340;12.432;2022-10-26T13:15:21;100354.22;;;23.60;48.49
61136;BME280;47021;51.340;12.432;2022-10-26T13:17:56;100359.53;;;23.93;47.62
61136;BME280;47021;51.340;12.432;2022-10-26T13:20:24;100361.16;;;24.13;47.00
61136;BME280;47021;51.340;12.432;2022-10-26T13:22:55;100359.69;;;24.24;46.54
61136;BME280;47021;51.340;12.432;2022-10-26T13:25:25;100366.88;;;23.91;48.65
61136;BME280;47021;51.340;12.432;2022-10-26T13:28:00;100363.19;;;24.05;47.88
61136;BME280;47021;51.340;12.432;2022-10-26T13:32:58;100359.25;;;24.20;46.92
61136;BME280;47021;51.340;12.432;2022-10-26T13:35:26;100365.06;;;23.78;47.84
61136;BME280;47021;51.340;12.432;2022-10-26T13:37:53;100357.69;;;23.67;48.62
61136;BME280;47021;51.340;12.432;2022-10-26T13:40:23;100355.84;;;23.61;48.42
61136;BME280;47021;51.340;12.432;2022-10-26T13:45:52;100368.47;;;23.06;49.79
61136;BME280;47021;51.340;12.432;2022-10-26T13:48:19;100362.75;;;23.16;50.27
61136;BME280;47021;51.340;12.432;2022-10-26T13:50:50;100360.78;;;23.44;49.52
61136;BME280;47021;51.340;12.432;2022-10-26T13:55:49;100367.13;;;23.82;48.63
61136;BME280;47021;51.340;12.432;2022-10-26T14:05:58;100401.34;;;23.33;49.92
61136;BME280;47021;51.340;12.432;2022-10-26T14:08:25;100401.34;;;23.33;49.93
61136;BME280;47021;51.340;12.432;2022-10-26T14:10:52;100395.56;;;23.10;50.42
61136;BME280;47021;51.340;12.432;2022-10-26T14:13:20;100406.81;;;23.05;50.52
61136;BME280;47021;51.340;12.432;2022-10-26T14:15:48;100411.28;;;22.92;50.87
61136;BME280;47021;51.340;12.432;2022-10-26T14:18:28;100415.19;;;22.96;50.99
61136;BME280;47021;51.340;12.432;2022-10-26T14:23:56;100420.88;;;22.80;50.73
61136;BME280;47021;51.340;12.432;2022-10-26T14:26:22;100421.03;;;22.78;50.79
61136;BME280;47021;51.340;12.432;2022-10-26T14:28:57;100425.50;;;22.65;50.99
61136;BME280;47021;51.340;12.432;2022-10-26T14:31:30;100429.88;;;22.44;51.70
61136;BME280;47021;51.340;12.432;2022-10-26T14:34:03;100427.56;;;22.69;50.94
61136;BME280;47021;51.340;12.432;2022-10-26T14:41:57;100428.25;;;22.43;51.70
61136;BME280;47021;51.340;12.432;2022-10-26T14:44:25;100420.00;;;22.66;51.23
61136;BME280;47021;51.340;12.432;2022-10-26T14:49:37;100435.75;;;22.68;50.92
61136;BME280;47021;51.340;12.432;2022-10-26T14:52:18;100435.41;;;22.77;51.10
61136;BME280;47021;51.340;12.432;2022-10-26T14:54:55;100429.81;;;22.66;51.10
61136;BME280;47021;51.340;12.432;2022-10-26T14:57:31;100428.91;;;22.52;51.56
61136;BME280;47021;51.340;12.432;2022-10-26T14:59:59;100427.56;;;22.69;51.44
61136;BME280;47021;51.340;12.432;2022-10-26T15:05:03;100418.97;;;22.05;52.98
61136;BME280;47021;51.340;12.432;2022-10-26T15:07:35;100422.47;;;22.06;53.05
61136;BME280;47021;51.340;12.432;2022-10-26T15:10:03;100413.53;;;22.13;52.74
61136;BME280;47021;51.340;12.432;2022-10-26T15:12:34;100423.28;;;22.06;53.01
61136;BME280;47021;51.340;12.432;2022-10-26T15:20:28;100422.25;;;21.79;53.41
61136;BME280;47021;51.340;12.432;2022-10-26T15:23:01;100423.00;;;21.73;53.86
61136;BME280;47021;51.340;12.432;2022-10-26T15:25:33;100428.22;;;21.60;54.10
61136;BME280;47021;51.340;12.432;2022-10-26T15:30:56;100433.63;;;21.52;54.86
61136;BME280;47021;51.340;12.432;2022-10-26T15:33:22;100443.16;;;21.40;54.78
61136;BME280;47021;51.340;12.432;2022-10-26T15:35:47;100448.25;;;21.42;55.00
61136;BME280;47021;51.340;12.432;2022-10-26T15:38:17;100443.31;;;21.39;55.33
61136;BME280;47021;51.340;12.432;2022-10-26T15:40:43;100442.28;;;21.19;55.82
61136;BME280;47021;51.340;12.432;2022-10-26T15:43:09;100446.72;;;21.12;55.60
61136;BME280;47021;51.340;12.432;2022-10-26T15:45:53;100432.91;;;20.87;56.19
61136;BME280;47021;51.340;12.432;2022-10-26T15:48:33;100439.34;;;20.78;56.96
61136;BME280;47021;51.340;12.432;2022-10-26T15:50:59;100445.47;;;20.78;57.03
61136;BME280;47021;51.340;12.432;2022-10-26T15:53:25;100446.06;;;20.95;56.61
61136;BME280;47021;51.340;12.432;2022-10-26T15:55:50;100447.56;;;20.68;56.91
61136;BME280;47021;51.340;12.432;2022-10-26T15:58:16;100446.00;;;20.88;57.06
61136;BME280;47021;51.340;12.432;2022-10-26T16:00:54;100447.94;;;20.80;57.04
61136;BME280;47021;51.340;12.432;2022-10-26T16:03:21;100447.94;;;20.80;57.01
61136;BME280;47021;51.340;12.432;2022-10-26T16:06:02;100457.44;;;20.74;56.85
61136;BME280;47021;51.340;12.432;2022-10-26T16:08:34;100461.03;;;20.67;56.94
61136;BME280;47021;51.340;12.432;2022-10-26T16:11:01;100465.06;;;20.48;57.62
61136;BME280;47021;51.340;12.432;2022-10-26T16:13:28;100466.25;;;20.60;57.33
61136;BME280;47021;51.340;12.432;2022-10-26T16:15:56;100471.81;;;20.65;57.29
61136;BME280;47021;51.340;12.432;2022-10-26T16:18:27;100465.13;;;20.84;57.06
61136;BME280;47021;51.340;12.432;2022-10-26T16:21:02;100465.41;;;20.89;57.22
61136;BME280;47021;51.340;12.432;2022-10-26T16:23:29;100469.63;;;20.54;57.52
61136;BME280;47021;51.340;12.432;2022-10-26T16:25:54;100467.06;;;20.61;57.92
61136;BME280;47021;51.340;12.432;2022-10-26T16:28:25;100471.81;;;20.65;57.55
61136;BME280;47021;51.340;12.432;2022-10-26T16:30:57;100467.16;;;20.38;58.45